Auberry, California
Current Conditions -  °F | °C
As of 8:04 AM on Monday 24 Nov 2014 (Local Time) from KFAT Reporting Station
Haze Haze  
Wind Chill: 47°   Ceiling: Unl
Heat Index: 47°   Visibility: 5mi
Dew Point: 45°   Wind: 0mph
Humidity: 93%   Direction: NA
Pressure: 30.39"   Gusts: NA
Location:  37.08°N, 119.49°W
Report Text: KFAT 241604Z 00000KT 5SM BR SCT025 08/07 A3039 RMK AO2 T00830072
Loading
Personal Weather Stations






























Interactive Weather Map New forecast layout! Learn more

10-Day Weather Forecast

Advertisements
Track Severe Weather on mobile